Airfield :
LOGIN :

Register | Disclaimer

   EN    FR    IT 

 










Legend :    VFR   Marginal VFR   IFR   Intensive IFR   Very Intensive IFR
Visi :
Ceiling :
>= 8 km
>= 3000ft
5 to 8 km
1000 to 3000 ft
1500m to 5 km
500 to 1000 ft
800 to 1500m
200 to 500 ft
< 800m
< 200 ft
Symbols :   Thunderstorms  Fog  Heavy snow  Heavy precipitations  Wind > 20 kt
SIGMETs :     Misc.  Thunderstorms  Icing  Turbulence  Mountain Waves  Volcanic Ashes






- Airport Elevation : 1649 ft
- IATA code : HHN


EDFH - Frankfurt-Hahn Rhineland-Palatinate

CURRENT METAR :
  • 101220Z 22008KT 190V260 9999 FEW015 03/00 Q1025

EXPIRED METARs :
  • 101150Z 21009KT 9999 FEW010 03/01 Q1025
  • 101120Z 24007KT 200V280 9999 FEW009 02/01 Q1026
  • 101050Z 25008KT 9999 FEW008 02/01 Q1026
  • 101020Z 24008KT 210V270 9999 FEW006 02/01 Q1026
  • 100950Z 24007KT 9999 FEW007 01/00 Q1026

TAF TAF EDFH
Valid from the 10 at 12:00 until the 11 at 12:00 UTC


101100Z 1012/1112 24008KT 9999 FEW010
BECMG 1015/1018 20013KT
PROB40
TEMPO 1102/1106 3000 RADZ
PROB30
TEMPO 1102/1106 2000 -RASN
TEMPO 1106/1112 3000 RASN BKN014
PROB40
TEMPO 1108/1112 1000 SN OVC004



MET'MAP, your aeronautical weather chart ! - Copyright ORBIFLY December 2007 - Disclaimer

ORBIFLY MET'MAP TEAM :

Programming & Development : Alexandra Zaïnal
Concept & original design : Baudouin d'Aumeries
Assistance for programming : Marc-Olivier Méhu
Technical & hardware support : Manuel Goepfert

Contact : metmap@orbifly.com




SOURCES & CREDITS :

   NOAA